Alleman, Iowa
Current Conditions -  °F | °C
As of 2:35 PM on Tuesday 25 Nov 2014 (Local Time) from KIKV Reporting Station
Clear Clear  
Wind Chill: 34°   Ceiling: Unl
Heat Index: 34°   Visibility: 10mi
Dew Point:   Wind: 0mph
Humidity: 32%   Direction: NA
Pressure: 30.08"   Gusts: NA
Location:  41.82°N, 93.61°W
Report Text: KIKV 252035Z AUTO 00000KT 10SM CLR 01/M14 A3008 RMK AO2
Loading
Personal Weather Stations






























Interactive Weather Map New forecast layout! Learn more

10-Day Weather Forecast

Advertisements
Track Severe Weather on mobile